Cranbourne Gardens, Victoria

6:31 PM AEDT on March 06, 2015 (GMT +1100)
Cranbourne East (Hunt Club) | Change Station
CLOSE
Current Station
Personal Weather Station
Location: Cranbourne East, VICTORIA
Elevation: 157 ft
Nearby Weather Stations

Elev 157 ft 38.11 °S, 145.30 °E | Updated 2 minutes ago

Overcast
Overcast
69.6 °F
Feels Like 69.6 °F
N
6.0
Wind Variable Wind from West
Gusts 8.3 mph

Today
High -- | Low -- °F
--% Chance of Precip.
Yesterday
High -- | Low -- °F
Precip. -- in
7:07 AM 7:52 PM
Full, 100% visible
Pressure 29.86 in
Visibility 6.2 miles
Clouds Mostly Cloudy 2100 ft
Mostly Cloudy 2700 ft
Overcast 5600 ft
Dew Point 57 °F
Humidity 64%
Rainfall in
Snow Depth Not available.
UV 1 out of 12
Pollen Not available.
Air Quality Not available.
Flu Activity Not available.
METAR YMEN 060700Z AUTO 18011KT 9999 // BKN021 BKN027 OVC056 18/14 Q1011

More Conditions Fewer Conditions

Pressure 29.86 in
Visibility 6.2 miles
Clouds Mostly Cloudy 2100 ft
Mostly Cloudy 2700 ft
Overcast 5600 ft
Dew Point 57 °F
Humidity 64%
Rainfall in
Snow Depth Not available.
UV 1 out of 12
Pollen Not available.
Air Quality Not available.
Flu Activity Not available.
METAR YMEN 060700Z AUTO 18011KT 9999 // BKN021 BKN027 OVC056 18/14 Q1011

More Conditions Fewer Conditions

10-Day Weather Forecast

Almanac

Astronomy

Mar. 06, 2015 Rise Set
Actual Time
Civil Twilight
Nautical Twilight
Astronomical Twilight
Moon
Length of Visible Light
Length of Day
Tomorrow will be .
, % of the Moon is Illuminated

Today's Extremes

Country Highs Country Lows

Community

WunderPhotos

Upload Photos

1,803,199 photos uploaded!

WunderBlogs® & News

Nearby

Air Quality

  Air Quality AQ Index Pollutant
Not available.

Snow Depth

Station Depth Elevation

Earthquake Activity

City Distance Mag. Time & Date
Minimum magnitude displayed is 2.5.

Coastal Water Temperatures

Place Temperature

Nearby Weather Stations